Time;durP1;ratioP1;P1;durP2;ratioP2;P2;SDS_P1;SDS_P2;PMS_P1;PMS_P2;Temp;Humidity;BMP_temperature;BMP_pressure;BME280_temperature;BME280_humidity;BME280_pressure;Samples;Min_cycle;Max_cycle;Signal;HPM_P1;HPM_P2
2021/03/10 00:00:08;;;;;;;6.57;5.15;;;7.10;68.40;7.20;99864.00;;;;344231;28;83408;-88
2021/03/10 00:00:20;;;;;;;7.28;5.57;;;7.10;68.50;7.30;99869.00;;;;343660;28;91075;-87
2021/03/10 00:00:32;;;;;;;8.35;6.03;;;7.10;68.30;7.10;99872.00;;;;344217;28;83932;-88
2021/03/10 00:00:43;;;;;;;7.75;5.63;;;7.00;68.50;7.10;99869.00;;;;342327;28;90774;-88
2021/03/10 00:00:56;;;;;;;5.80;4.63;;;7.00;68.60;7.20;99863.00;;;;346952;28;84682;-87
2021/03/10 00:01:07;;;;;;;6.65;4.85;;;7.00;68.50;7.20;99858.00;;;;343937;28;92501;-88
2021/03/10 00:01:19;;;;;;;6.85;4.95;;;7.00;68.60;7.20;99853.00;;;;345537;28;84593;-87
2021/03/10 00:01:30;;;;;;;7.13;5.43;;;7.00;68.70;7.20;99868.00;;;;345094;28;90894;-87
2021/03/10 00:01:42;;;;;;;6.15;5.20;;;7.00;68.70;7.20;99870.00;;;;347032;28;83763;-87
2021/03/10 00:01:54;;;;;;;6.28;5.68;;;7.00;68.60;7.10;99865.00;;;;345274;28;92039;-88
2021/03/10 00:02:05;;;;;;;7.45;5.82;;;7.00;68.80;7.20;99862.00;;;;345516;28;83986;-87
2021/03/10 00:02:17;;;;;;;8.43;5.80;;;7.00;68.70;7.30;99865.00;;;;342501;28;91357;-89
2021/03/10 00:02:46;;;;;;;7.75;4.85;;;7.00;68.70;7.20;99869.00;;;;345059;28;83502;-87
2021/03/10 00:02:58;;;;;;;7.90;4.82;;;7.00;68.80;7.10;99858.00;;;;346558;28;91698;-88
2021/03/10 00:03:09;;;;;;;8.25;5.10;;;7.00;68.90;7.20;99865.00;;;;344574;28;84554;-88
2021/03/10 00:03:21;;;;;;;7.80;5.40;;;6.90;68.90;7.10;99864.00;;;;346370;28;91872;-89
2021/03/10 00:03:32;;;;;;;6.90;5.47;;;7.00;68.90;7.10;99868.00;;;;345252;28;83749;-90
2021/03/10 00:03:45;;;;;;;6.80;5.38;;;6.90;68.90;7.20;99862.00;;;;346514;28;91465;-88
2021/03/10 00:03:56;;;;;;;6.63;5.43;;;6.90;68.90;7.10;99864.00;;;;345599;28;83973;-89
2021/03/10 00:04:08;;;;;;;6.72;5.70;;;6.90;68.90;7.10;99865.00;;;;342450;28;90714;-88
2021/03/10 00:04:19;;;;;;;7.25;5.40;;;6.90;69.10;7.20;99854.00;;;;347046;28;85056;-88
2021/03/10 00:04:33;;;;;;;6.90;5.05;;;6.90;69.00;7.20;99869.00;;;;342507;28;92002;-89
2021/03/10 00:04:45;;;;;;;8.23;5.18;;;6.90;68.90;7.10;99866.00;;;;344150;28;83753;-89
2021/03/10 00:04:56;;;;;;;8.32;5.20;;;6.90;69.10;7.10;99867.00;;;;345358;28;92077;-89
2021/03/10 00:05:08;;;;;;;8.63;5.60;;;6.90;69.10;7.10;99863.00;;;;344347;28;83320;-89
2021/03/10 00:05:19;;;;;;;7.00;5.55;;;6.90;69.10;7.10;99869.00;;;;344980;28;89480;-90
2021/03/10 00:05:31;;;;;;;6.63;5.25;;;6.90;69.20;7.00;99865.00;;;;343936;28;84822;-90
2021/03/10 00:05:43;;;;;;;7.68;5.55;;;6.90;69.30;7.00;99866.00;;;;344271;28;93294;-89
2021/03/10 00:05:54;;;;;;;7.80;5.70;;;6.90;69.40;7.10;99861.00;;;;344714;28;83415;-89
2021/03/10 00:06:05;;;;;;;8.00;5.70;;;6.80;69.20;7.10;99866.00;;;;343869;28;91930;-88
2021/03/10 00:06:17;;;;;;;6.63;5.57;;;6.80;69.30;7.00;99874.00;;;;345581;28;84006;-89
2021/03/10 00:06:28;;;;;;;6.82;5.55;;;6.80;69.50;7.00;99866.00;;;;341205;28;91738;-88
2021/03/10 00:06:40;;;;;;;7.00;5.45;;;6.80;69.40;7.00;99866.00;;;;345430;28;83836;-88
2021/03/10 00:06:51;;;;;;;6.82;5.00;;;6.80;69.60;7.10;99870.00;;;;345276;28;92771;-88
2021/03/10 00:07:03;;;;;;;7.32;4.88;;;6.80;69.50;7.10;99865.00;;;;344309;28;83365;-88
2021/03/10 00:07:14;;;;;;;7.13;5.10;;;6.80;69.40;7.10;99870.00;;;;342674;28;88028;-88
2021/03/10 00:07:26;;;;;;;6.68;5.32;;;6.80;69.50;7.10;99865.00;;;;342655;28;83527;-88
2021/03/10 00:07:37;;;;;;;6.38;5.40;;;6.80;69.50;7.20;99871.00;;;;345281;28;88838;-89
2021/03/10 00:07:49;;;;;;;6.35;5.55;;;6.80;69.40;7.20;99873.00;;;;342808;28;84080;-89
2021/03/10 00:08:00;;;;;;;6.25;5.57;;;6.80;69.30;7.10;99871.00;;;;342477;28;91831;-88
2021/03/10 00:08:12;;;;;;;7.20;5.57;;;6.80;69.90;7.10;99871.00;;;;344131;28;83402;-92
2021/03/10 00:08:24;;;;;;;8.32;5.57;;;6.80;69.50;7.20;99872.00;;;;343832;28;90598;-89
2021/03/10 00:08:35;;;;;;;8.00;5.22;;;6.80;69.40;7.10;99877.00;;;;345540;28;84901;-89
2021/03/10 00:08:47;;;;;;;6.80;5.13;;;6.80;69.40;7.20;99864.00;;;;342902;28;91830;-90
2021/03/10 00:08:58;;;;;;;6.30;5.05;;;6.80;69.40;7.10;99869.00;;;;345664;28;82507;-89
2021/03/10 00:09:09;;;;;;;7.63;5.18;;;6.80;69.30;7.10;99869.00;;;;343163;28;90494;-89
2021/03/10 00:09:21;;;;;;;7.70;4.85;;;6.90;69.50;7.10;99860.00;;;;342707;28;84077;-89
2021/03/10 00:09:32;;;;;;;8.70;5.25;;;6.80;69.40;7.20;99867.00;;;;343817;28;93106;-89
2021/03/10 00:09:43;;;;;;;7.47;5.30;;;6.80;69.30;7.20;99860.00;;;;344121;28;84985;-89
2021/03/10 00:09:55;;;;;;;7.20;5.22;;;6.80;69.30;7.20;99858.00;;;;346569;28;92073;-89
2021/03/10 00:10:08;;;;;;;6.75;5.18;;;6.90;69.30;7.20;99864.00;;;;346817;28;83628;-89
2021/03/10 00:10:20;;;;;;;6.95;5.45;;;6.80;69.20;7.20;99864.00;;;;343811;28;91461;-88
2021/03/10 00:10:32;;;;;;;6.40;5.07;;;6.90;69.30;7.20;99869.00;;;;341577;28;83773;-88
2021/03/10 00:10:45;;;;;;;6.82;5.18;;;6.90;69.20;7.10;99860.00;;;;343762;28;92427;-89
2021/03/10 00:10:56;;;;;;;7.68;5.20;;;6.90;69.30;7.10;99863.00;;;;344282;28;83609;-90
2021/03/10 00:11:08;;;;;;;8.13;5.32;;;6.90;69.30;7.10;99864.00;;;;343962;28;89601;-89
2021/03/10 00:11:20;;;;;;;6.97;5.20;;;6.90;69.30;7.20;99862.00;;;;345487;28;85292;-95
2021/03/10 00:11:31;;;;;;;7.03;5.30;;;6.90;69.20;7.20;99870.00;;;;343813;28;92536;-88
2021/03/10 00:11:43;;;;;;;7.95;5.25;;;6.90;69.20;7.20;99867.00;;;;343818;28;83606;-88
2021/03/10 00:11:54;;;;;;;8.25;5.10;;;6.90;69.20;7.10;99861.00;;;;343651;28;91735;-89
2021/03/10 00:12:06;;;;;;;7.13;4.78;;;6.90;69.30;7.10;99871.00;;;;340152;28;85385;-88
2021/03/10 00:12:18;;;;;;;6.90;4.95;;;6.90;69.40;7.10;99867.00;;;;343993;28;89381;-89
2021/03/10 00:12:29;;;;;;;6.47;5.10;;;6.90;69.20;7.10;99870.00;;;;344261;28;82421;-88
2021/03/10 00:12:41;;;;;;;6.97;5.38;;;6.90;69.20;7.10;99865.00;;;;347598;27;90550;-89
2021/03/10 00:12:53;;;;;;;6.60;5.40;;;6.90;69.30;7.00;99869.00;;;;342796;28;83432;-88
2021/03/10 00:13:04;;;;;;;6.63;5.50;;;6.90;69.40;7.00;99880.00;;;;345259;28;91758;-89
2021/03/10 00:13:16;;;;;;;6.53;5.63;;;6.80;69.30;7.00;99866.00;;;;344127;28;83198;-88
2021/03/10 00:13:28;;;;;;;6.88;5.97;;;6.80;69.40;7.00;99874.00;;;;345168;28;92687;-88
2021/03/10 00:13:39;;;;;;;6.25;5.20;;;6.80;69.50;7.00;99878.00;;;;342868;28;85180;-88
2021/03/10 00:13:50;;;;;;;5.97;5.03;;;6.80;69.40;7.10;99871.00;;;;343834;28;92150;-88
2021/03/10 00:14:02;;;;;;;6.38;5.15;;;6.80;69.30;7.10;99871.00;;;;348410;27;83442;-90
2021/03/10 00:14:13;;;;;;;7.10;5.55;;;6.80;69.30;7.00;99867.00;;;;343973;28;91594;-89
2021/03/10 00:14:24;;;;;;;7.40;5.60;;;6.80;69.50;7.00;99869.00;;;;344325;28;83327;-89
2021/03/10 00:14:36;;;;;;;7.38;5.75;;;6.80;69.60;7.00;99864.00;;;;344983;28;91821;-90
2021/03/10 00:14:47;;;;;;;7.28;5.93;;;6.80;69.50;7.00;99867.00;;;;344612;28;83514;-89
2021/03/10 00:14:59;;;;;;;8.30;6.13;;;6.80;69.50;7.00;99876.00;;;;344873;28;88282;-88
2021/03/10 00:15:12;;;;;;;8.18;6.28;;;6.80;69.60;7.00;99873.00;;;;346836;28;83457;-88
2021/03/10 00:15:23;;;;;;;8.13;6.00;;;6.80;69.70;7.00;99870.00;;;;343729;28;91491;-88
2021/03/10 00:15:34;;;;;;;6.43;5.47;;;6.70;69.70;7.10;99874.00;;;;344320;28;83716;-88
2021/03/10 00:15:46;;;;;;;6.63;5.20;;;6.70;69.70;7.10;99873.00;;;;343899;28;90350;-88
2021/03/10 00:15:58;;;;;;;6.50;5.15;;;6.80;69.60;7.10;99878.00;;;;344131;28;84056;-89
2021/03/10 00:16:10;;;;;;;6.63;5.35;;;6.80;69.50;7.00;99873.00;;;;343808;28;91732;-90
2021/03/10 00:16:21;;;;;;;6.60;5.68;;;6.80;69.70;7.00;99869.00;;;;345467;28;83967;-88
2021/03/10 00:16:33;;;;;;;6.63;5.47;;;6.70;69.70;6.90;99877.00;;;;345237;28;89626;-89
2021/03/10 00:16:45;;;;;;;6.47;4.97;;;6.80;69.80;7.00;99884.00;;;;346839;28;83709;-88
2021/03/10 00:16:56;;;;;;;6.72;5.38;;;6.80;69.60;7.10;99870.00;;;;345056;28;90902;-88
2021/03/10 00:17:08;;;;;;;6.95;5.43;;;6.80;69.50;7.10;99880.00;;;;342933;28;84334;-88
2021/03/10 00:17:19;;;;;;;6.72;5.18;;;6.80;69.60;7.10;99871.00;;;;345155;28;92736;-89
2021/03/10 00:17:31;;;;;;;6.58;4.86;;;6.80;69.70;7.10;99879.00;;;;344179;28;84797;-89
2021/03/10 00:17:43;;;;;;;6.70;5.03;;;6.80;69.60;7.10;99878.00;;;;344270;28;91432;-90
2021/03/10 00:17:55;;;;;;;7.00;5.43;;;6.80;69.60;7.10;99866.00;;;;345476;28;84088;-87
2021/03/10 00:18:07;;;;;;;6.00;5.20;;;6.80;69.70;7.10;99874.00;;;;342381;28;90885;-89
2021/03/10 00:18:20;;;;;;;6.40;5.30;;;6.80;69.50;7.10;99876.00;;;;345645;28;84332;-89
2021/03/10 00:18:31;;;;;;;8.30;5.85;;;6.80;69.50;7.10;99875.00;;;;345279;28;90740;-89
2021/03/10 00:18:42;;;;;;;8.52;6.10;;;6.80;69.50;7.00;99878.00;;;;345427;28;85162;-88
2021/03/10 00:18:54;;;;;;;8.02;5.82;;;6.80;69.50;7.10;99873.00;;;;346657;28;91876;-89
2021/03/10 00:19:05;;;;;;;6.97;5.78;;;6.80;69.40;7.00;99873.00;;;;347073;28;85037;-88
2021/03/10 00:19:17;;;;;;;7.43;5.75;;;6.80;69.60;7.00;99873.00;;;;345231;28;90306;-90
2021/03/10 00:19:28;;;;;;;7.25;5.75;;;6.80;69.60;7.00;99873.00;;;;344226;28;83550;-90
2021/03/10 00:19:41;;;;;;;6.78;5.63;;;6.80;69.60;6.90;99874.00;;;;347856;27;90887;-88
2021/03/10 00:19:54;;;;;;;6.43;5.60;;;6.80;69.70;6.90;99880.00;;;;345543;28;85090;-89
2021/03/10 00:20:06;;;;;;;7.43;6.20;;;6.80;69.70;6.90;99871.00;;;;345224;28;89511;-88
2021/03/10 00:20:18;;;;;;;8.70;6.22;;;6.70;69.70;6.90;99871.00;;;;344290;28;82713;-88
2021/03/10 00:20:29;;;;;;;8.60;5.78;;;6.70;69.80;6.90;99884.00;;;;343971;28;90574;-88
2021/03/10 00:20:40;;;;;;;7.70;5.30;;;6.70;69.90;6.90;99882.00;;;;346105;28;83859;-89
2021/03/10 00:20:52;;;;;;;7.05;5.18;;;6.70;69.80;6.90;99871.00;;;;345287;28;91806;-89
2021/03/10 00:21:05;;;;;;;7.25;5.63;;;6.70;70.00;7.00;99876.00;;;;344159;28;85407;-89
2021/03/10 00:21:16;;;;;;;7.88;5.75;;;6.70;70.00;7.00;99870.00;;;;343418;28;92135;-90
2021/03/10 00:21:28;;;;;;;7.25;5.32;;;6.70;69.80;7.00;99868.00;;;;344264;28;84700;-89
2021/03/10 00:21:39;;;;;;;7.05;5.30;;;6.70;69.80;7.00;99870.00;;;;342366;28;91904;-89
2021/03/10 00:21:50;;;;;;;5.85;5.03;;;6.70;69.80;6.90;99882.00;;;;345459;28;84163;-89
2021/03/10 00:22:02;;;;;;;6.10;5.45;;;6.70;70.00;7.00;99878.00;;;;343703;28;91267;-89
2021/03/10 00:22:14;;;;;;;6.15;5.53;;;6.70;70.00;6.90;99886.00;;;;341309;28;83725;-89
2021/03/10 00:22:25;;;;;;;7.00;5.85;;;6.70;70.70;6.90;99875.00;;;;343682;28;90446;-89
2021/03/10 00:22:37;;;;;;;8.00;6.18;;;6.70;70.00;6.90;99876.00;;;;345373;28;84099;-90
2021/03/10 00:22:48;;;;;;;7.88;6.10;;;6.70;70.10;7.00;99875.00;;;;343881;28;91630;-89
2021/03/10 00:22:59;;;;;;;7.45;6.15;;;6.70;70.00;7.00;99869.00;;;;346964;28;83343;-89
2021/03/10 00:23:14;;;;;;;7.20;5.80;;;6.70;69.90;7.00;99880.00;;;;342497;28;90986;-89
2021/03/10 00:23:25;;;;;;;6.97;5.53;;;6.70;70.00;6.90;99877.00;;;;344159;28;84596;-88
2021/03/10 00:23:36;;;;;;;6.70;5.60;;;6.70;70.00;7.00;99884.00;;;;346325;28;91844;-89
2021/03/10 00:23:48;;;;;;;6.43;5.30;;;6.70;70.00;7.00;99871.00;;;;343967;28;84622;-88
2021/03/10 00:23:59;;;;;;;6.47;5.15;;;6.70;69.90;7.10;99879.00;;;;346205;28;92022;-88
2021/03/10 00:24:11;;;;;;;7.15;5.43;;;6.70;69.80;7.10;99870.00;;;;341540;28;85188;-88
2021/03/10 00:24:23;;;;;;;6.95;5.22;;;6.70;69.90;7.00;99871.00;;;;343958;28;91648;-88
2021/03/10 00:24:34;;;;;;;7.20;5.30;;;6.70;70.00;6.90;99878.00;;;;342806;28;83346;-93
2021/03/10 00:24:46;;;;;;;7.05;5.15;;;6.70;70.80;6.90;99872.00;;;;343444;28;88330;-88
2021/03/10 00:24:57;;;;;;;6.97;5.10;;;6.70;70.20;6.90;99883.00;;;;342954;28;83458;-89
2021/03/10 00:25:10;;;;;;;6.43;4.97;;;6.60;70.10;7.00;99878.00;;;;343770;28;93355;-88
2021/03/10 00:25:21;;;;;;;6.60;5.00;;;6.70;70.00;7.00;99874.00;;;;344284;28;83904;-88
2021/03/10 00:25:33;;;;;;;6.60;5.30;;;6.70;70.10;7.00;99875.00;;;;343921;28;90604;-89
2021/03/10 00:25:44;;;;;;;6.68;5.53;;;6.70;70.20;7.00;99882.00;;;;345577;28;84485;-89
2021/03/10 00:25:56;;;;;;;6.45;5.57;;;6.70;70.30;7.00;99875.00;;;;346887;28;90740;-89
2021/03/10 00:26:07;;;;;;;6.85;5.50;;;6.70;70.30;7.00;99877.00;;;;345746;28;83639;-89
2021/03/10 00:26:19;;;;;;;7.22;5.57;;;6.70;70.20;7.00;99885.00;;;;344081;28;91794;-89
2021/03/10 00:26:31;;;;;;;7.72;5.68;;;6.70;70.20;6.90;99876.00;;;;344555;28;83851;-88
2021/03/10 00:26:44;;;;;;;7.40;5.68;;;6.70;70.30;6.90;99877.00;;;;345196;28;88594;-88
2021/03/10 00:26:55;;;;;;;7.40;5.97;;;6.70;70.10;7.00;99878.00;;;;346407;28;83423;-88
2021/03/10 00:27:07;;;;;;;7.25;5.65;;;6.70;70.10;7.00;99876.00;;;;345410;28;92327;-89
2021/03/10 00:27:24;;;;;;;7.93;6.13;;;6.70;70.10;7.00;99877.00;;;;341712;28;84686;-88
2021/03/10 00:27:36;;;;;;;10.02;6.75;;;6.70;70.30;6.90;99885.00;;;;342821;28;90259;-89
2021/03/10 00:27:47;;;;;;;9.32;6.25;;;6.60;70.40;7.00;99882.00;;;;347047;28;83418;-88
2021/03/10 00:27:59;;;;;;;7.40;5.66;;;6.70;70.30;7.00;99876.00;;;;342663;28;92218;-87
2021/03/10 00:28:10;;;;;;;6.88;5.28;;;6.70;70.30;7.00;99879.00;;;;345669;28;84464;-91
2021/03/10 00:28:21;;;;;;;7.43;5.68;;;6.70;70.20;7.00;99879.00;;;;345480;28;91873;-88
2021/03/10 00:28:33;;;;;;;9.18;5.95;;;6.70;70.30;7.10;99883.00;;;;341748;28;84879;-89
2021/03/10 00:28:44;;;;;;;8.70;5.80;;;6.70;70.20;7.00;99879.00;;;;343970;28;92608;-89
2021/03/10 00:28:56;;;;;;;7.47;5.47;;;6.70;70.20;7.00;99879.00;;;;344518;28;84807;-88
2021/03/10 00:29:07;;;;;;;6.82;5.70;;;6.70;70.20;7.00;99870.00;;;;342455;28;92062;-90
2021/03/10 00:29:19;;;;;;;8.15;6.10;;;6.70;70.20;7.10;99867.00;;;;345676;28;84877;-88
2021/03/10 00:29:30;;;;;;;8.77;6.68;;;6.70;70.10;7.00;99880.00;;;;344107;28;91984;-89
2021/03/10 00:29:42;;;;;;;8.98;6.53;;;6.70;70.10;7.00;99874.00;;;;344123;28;83654;-89
2021/03/10 00:29:57;;;;;;;8.15;5.82;;;6.70;70.20;7.10;99872.00;;;;344427;28;91746;-89
2021/03/10 00:30:09;;;;;;;7.30;5.75;;;6.70;70.10;7.00;99875.00;;;;345631;28;83768;-89
2021/03/10 00:30:21;;;;;;;6.53;5.63;;;6.70;70.20;7.00;99880.00;;;;344089;28;92510;-89
2021/03/10 00:30:33;;;;;;;6.88;5.72;;;6.70;70.20;7.00;99870.00;;;;344569;28;84742;-89
2021/03/10 00:30:44;;;;;;;7.35;5.75;;;6.70;70.20;7.00;99880.00;;;;343889;28;91705;-89
2021/03/10 00:30:56;;;;;;;7.97;6.00;;;6.70;70.10;7.00;99879.00;;;;343211;28;83364;-88
2021/03/10 00:31:07;;;;;;;7.57;6.03;;;6.70;70.10;7.00;99872.00;;;;341369;28;92338;-89
2021/03/10 00:31:19;;;;;;;7.35;5.63;;;6.70;70.10;7.00;99874.00;;;;345825;28;84575;-88
2021/03/10 00:31:31;;;;;;;7.22;5.78;;;6.70;70.10;7.00;99874.00;;;;346655;28;91829;-92
2021/03/10 00:31:42;;;;;;;6.97;5.72;;;6.80;70.20;7.10;99882.00;;;;345801;28;84760;-89
2021/03/10 00:31:54;;;;;;;7.20;6.00;;;6.70;70.10;7.00;99876.00;;;;342522;28;91020;-89
2021/03/10 00:32:06;;;;;;;7.40;5.78;;;6.70;70.20;7.10;99873.00;;;;348682;27;83748;-88
2021/03/10 00:32:18;;;;;;;7.70;6.20;;;6.70;70.20;7.10;99876.00;;;;344206;28;89141;-89
2021/03/10 00:32:30;;;;;;;8.93;6.70;;;6.80;70.10;7.00;99874.00;;;;344502;28;84638;-89
2021/03/10 00:32:42;;;;;;;8.85;6.55;;;6.80;70.20;7.00;99880.00;;;;344541;28;90938;-89
2021/03/10 00:33:11;;;;;;;7.13;6.15;;;6.80;70.20;6.90;99883.00;;;;347225;28;82489;-89
2021/03/10 00:33:23;;;;;;;7.63;6.18;;;6.70;70.10;7.00;99873.00;;;;343979;28;92841;-88
2021/03/10 00:33:34;;;;;;;7.55;5.80;;;6.70;70.10;7.00;99872.00;;;;343166;28;83641;-89
2021/03/10 00:33:46;;;;;;;6.75;5.55;;;6.80;70.10;7.00;99875.00;;;;342463;28;90733;-89
2021/03/10 00:33:58;;;;;;;6.40;5.68;;;6.80;70.00;6.90;99871.00;;;;345740;28;83741;-89
2021/03/10 00:34:10;;;;;;;6.55;5.70;;;6.80;70.10;7.00;99876.00;;;;342672;28;91990;-88
2021/03/10 00:34:21;;;;;;;6.65;5.55;;;6.80;70.20;7.00;99876.00;;;;344458;28;84243;-89
2021/03/10 00:34:32;;;;;;;6.70;5.40;;;6.70;70.10;7.00;99877.00;;;;342795;28;88222;-89
2021/03/10 00:34:45;;;;;;;7.15;5.55;;;6.70;70.10;7.00;99870.00;;;;347103;28;84552;-89
2021/03/10 00:34:56;;;;;;;7.25;5.43;;;6.70;70.10;7.10;99876.00;;;;346899;28;90611;-91
2021/03/10 00:35:08;;;;;;;7.47;5.60;;;6.80;70.20;7.10;99871.00;;;;345837;28;84025;-89
2021/03/10 00:35:20;;;;;;;7.57;6.03;;;6.70;70.10;7.10;99860.00;;;;346558;28;91058;-90
2021/03/10 00:35:31;;;;;;;7.95;6.43;;;6.80;70.70;7.00;99876.00;;;;344306;28;83969;-88
2021/03/10 00:35:43;;;;;;;7.65;6.28;;;6.80;70.20;6.90;99875.00;;;;343786;28;88199;-89
2021/03/10 00:35:54;;;;;;;7.65;5.80;;;6.70;70.30;6.90;99874.00;;;;345713;28;83728;-90
2021/03/10 00:36:06;;;;;;;6.97;5.35;;;6.70;70.80;6.90;99866.00;;;;346842;28;91943;-88
2021/03/10 00:36:18;;;;;;;8.73;5.40;;;6.70;70.20;6.80;99863.00;;;;345805;28;84082;-89
2021/03/10 00:36:29;;;;;;;8.90;5.63;;;6.70;70.40;6.90;99869.00;;;;343996;28;90288;-88
2021/03/10 00:36:41;;;;;;;7.30;5.75;;;6.70;70.30;6.90;99869.00;;;;345738;28;83537;-90
2021/03/10 00:36:52;;;;;;;8.07;6.43;;;6.70;70.40;6.90;99875.00;;;;344044;28;90731;-88
2021/03/10 00:37:04;;;;;;;8.10;6.35;;;6.70;70.30;7.00;99867.00;;;;344464;28;84760;-88
2021/03/10 00:37:16;;;;;;;7.70;6.40;;;6.70;70.20;6.90;99864.00;;;;346764;28;92691;-88
2021/03/10 00:37:27;;;;;;;7.55;6.30;;;6.70;70.50;6.90;99876.00;;;;344542;28;84598;-89
2021/03/10 00:37:38;;;;;;;8.32;6.53;;;6.70;70.60;6.80;99872.00;;;;344189;28;92029;-88
2021/03/10 00:37:50;;;;;;;7.68;6.10;;;6.60;70.50;6.90;99864.00;;;;344360;28;84681;-88
2021/03/10 00:38:01;;;;;;;7.75;6.25;;;6.60;70.60;6.90;99871.00;;;;344040;28;90563;-89
2021/03/10 00:38:12;;;;;;;7.63;6.18;;;6.60;70.50;6.90;99868.00;;;;344516;28;82404;-88
2021/03/10 00:38:24;;;;;;;7.55;6.22;;;6.60;70.70;6.90;99867.00;;;;342615;28;90724;-88
2021/03/10 00:38:35;;;;;;;7.68;6.35;;;6.60;70.60;7.00;99860.00;;;;344527;28;83303;-89
2021/03/10 00:38:46;;;;;;;7.72;6.55;;;6.60;70.60;7.00;99876.00;;;;344142;28;91783;-90
2021/03/10 00:38:58;;;;;;;7.43;6.18;;;6.60;70.60;7.00;99863.00;;;;346651;28;84207;-89
2021/03/10 00:39:09;;;;;;;7.22;6.10;;;6.60;70.60;7.00;99869.00;;;;348047;27;92810;-89
2021/03/10 00:39:21;;;;;;;7.00;5.97;;;6.60;70.50;7.00;99859.00;;;;347163;28;84793;-89
2021/03/10 00:39:32;;;;;;;7.40;6.32;;;6.60;70.40;6.90;99868.00;;;;345399;28;90902;-89
2021/03/10 00:39:47;;;;;;;8.18;6.60;;;6.70;70.60;6.90;99863.00;;;;345056;28;83850;-88
2021/03/10 00:40:00;;;;;;;8.20;6.43;;;6.60;70.50;6.90;99864.00;;;;342475;28;91132;-88
2021/03/10 00:40:11;;;;;;;7.60;5.85;;;6.70;70.60;7.00;99861.00;;;;344521;28;83287;-89
2021/03/10 00:40:23;;;;;;;7.50;6.13;;;6.70;70.50;6.90;99871.00;;;;344145;28;89420;-88
2021/03/10 00:40:34;;;;;;;6.97;5.90;;;6.70;70.50;6.90;99871.00;;;;343060;28;84382;-91
2021/03/10 00:40:48;;;;;;;7.95;6.35;;;6.70;70.50;7.00;99869.00;;;;343950;28;91092;-89
2021/03/10 00:40:59;;;;;;;8.15;6.72;;;6.70;70.40;7.00;99868.00;;;;343061;28;84172;-88
2021/03/10 00:41:11;;;;;;;8.10;6.63;;;6.60;70.40;7.00;99866.00;;;;346798;28;93068;-89
2021/03/10 00:41:22;;;;;;;7.95;6.50;;;6.60;70.50;7.00;99862.00;;;;344371;28;83731;-88
2021/03/10 00:41:34;;;;;;;7.60;6.15;;;6.70;70.50;7.00;99856.00;;;;344100;28;91884;-90
2021/03/10 00:41:45;;;;;;;7.00;5.90;;;6.70;70.50;7.10;99863.00;;;;344032;28;83724;-89
2021/03/10 00:41:57;;;;;;;7.28;6.10;;;6.70;70.40;7.00;99864.00;;;;342611;28;91709;-90
2021/03/10 00:42:08;;;;;;;7.60;5.95;;;6.70;70.40;6.90;99868.00;;;;342977;28;85213;-88
2021/03/10 00:42:19;;;;;;;8.23;6.00;;;6.70;70.50;7.00;99857.00;;;;344179;28;90998;-89
2021/03/10 00:42:31;;;;;;;9.02;6.28;;;6.70;70.40;7.00;99855.00;;;;345850;28;84986;-87
2021/03/10 00:42:42;;;;;;;8.55;6.20;;;6.70;70.50;7.00;99854.00;;;;344513;28;89364;-88
2021/03/10 00:42:54;;;;;;;7.93;6.18;;;6.70;70.50;7.00;99854.00;;;;345788;28;84825;-89
2021/03/10 00:43:07;;;;;;;7.95;6.20;;;6.70;70.40;6.90;99853.00;;;;345371;28;92980;-88
2021/03/10 00:43:18;;;;;;;7.50;6.35;;;6.70;70.40;6.90;99855.00;;;;344510;28;83359;-88
2021/03/10 00:43:29;;;;;;;6.97;6.15;;;6.70;70.50;6.90;99853.00;;;;346934;28;89248;-89
2021/03/10 00:43:41;;;;;;;9.38;6.80;;;6.70;70.40;6.90;99854.00;;;;344423;28;84741;-89
2021/03/10 00:43:52;;;;;;;9.70;7.00;;;6.70;70.60;6.90;99853.00;;;;346885;28;91628;-89
2021/03/10 00:44:04;;;;;;;10.10;6.68;;;6.60;70.50;7.00;99846.00;;;;347219;28;84821;-88
2021/03/10 00:44:15;;;;;;;9.88;6.38;;;6.70;70.50;6.90;99854.00;;;;344109;28;90784;-89
2021/03/10 00:44:27;;;;;;;9.60;6.38;;;6.70;70.60;6.90;99848.00;;;;347290;28;84581;-89
2021/03/10 00:44:38;;;;;;;8.57;6.18;;;6.60;70.50;6.90;99860.00;;;;344028;28;91860;-88
2021/03/10 00:44:50;;;;;;;7.95;5.95;;;6.60;70.60;6.90;99847.00;;;;348399;27;83547;-89
2021/03/10 00:45:01;;;;;;;8.30;6.13;;;6.70;70.60;6.90;99854.00;;;;346891;28;88827;-88
2021/03/10 00:45:13;;;;;;;8.32;6.53;;;6.60;70.50;7.00;99849.00;;;;344927;28;83460;-88
2021/03/10 00:45:25;;;;;;;8.32;6.50;;;6.70;70.50;6.90;99849.00;;;;345432;28;92106;-89
2021/03/10 00:45:36;;;;;;;7.22;5.95;;;6.60;70.50;6.90;99852.00;;;;347007;28;83600;-88
2021/03/10 00:45:48;;;;;;;8.00;6.18;;;6.70;70.60;6.90;99852.00;;;;348017;27;91175;-89
2021/03/10 00:45:59;;;;;;;9.10;6.75;;;6.70;70.80;6.80;99859.00;;;;343071;28;84199;-88
2021/03/10 00:46:11;;;;;;;8.88;7.22;;;6.60;70.80;6.90;99851.00;;;;346516;28;91191;-89
2021/03/10 00:46:22;;;;;;;8.68;6.90;;;6.60;70.80;6.90;99853.00;;;;345703;28;84155;-88
2021/03/10 00:46:34;;;;;;;9.10;6.75;;;6.60;70.70;7.00;99855.00;;;;345401;28;91866;-89
2021/03/10 00:46:46;;;;;;;9.18;6.55;;;6.60;70.70;6.90;99848.00;;;;347282;28;84009;-88
2021/03/10 00:46:58;;;;;;;9.30;6.53;;;6.60;70.80;6.90;99858.00;;;;346796;28;92938;-89
2021/03/10 00:47:10;;;;;;;7.65;6.80;;;6.60;70.70;7.00;99859.00;;;;345907;28;83371;-89
2021/03/10 00:47:21;;;;;;;8.05;7.05;;;6.60;70.70;7.00;99854.00;;;;343697;28;90849;-89
2021/03/10 00:47:33;;;;;;;8.30;6.80;;;6.60;70.60;7.00;99847.00;;;;341724;28;84406;-89
2021/03/10 00:47:45;;;;;;;8.63;6.63;;;6.60;70.60;7.00;99863.00;;;;342655;28;90270;-89
2021/03/10 00:47:57;;;;;;;8.13;6.60;;;6.60;70.70;6.90;99859.00;;;;346825;27;83621;-89
2021/03/10 00:48:09;;;;;;;7.78;6.35;;;6.60;70.80;6.80;99854.00;;;;346822;28;92001;-89
2021/03/10 00:48:21;;;;;;;8.30;6.78;;;6.60;70.90;6.90;99854.00;;;;348628;27;83771;-88
2021/03/10 00:48:32;;;;;;;8.40;6.85;;;6.60;70.80;6.90;99850.00;;;;342492;28;90925;-90
2021/03/10 00:48:44;;;;;;;8.30;6.88;;;6.60;70.80;6.90;99860.00;;;;345082;28;84285;-88
2021/03/10 00:48:56;;;;;;;7.88;6.60;;;6.60;70.80;6.90;99854.00;;;;342648;28;92674;-91
2021/03/10 00:49:07;;;;;;;8.10;6.93;;;6.60;70.90;6.80;99862.00;;;;344376;28;84394;-89
2021/03/10 00:49:19;;;;;;;9.13;6.60;;;6.60;71.00;6.90;99857.00;;;;343991;28;91899;-89
2021/03/10 00:49:30;;;;;;;9.32;6.70;;;6.60;71.10;6.90;99859.00;;;;344629;28;82367;-88
2021/03/10 00:49:42;;;;;;;8.10;6.50;;;6.60;71.10;7.00;99862.00;;;;342856;28;89318;-88
2021/03/10 00:49:55;;;;;;;8.20;6.64;;;6.60;71.60;7.00;99858.00;;;;347346;28;83761;-89
2021/03/10 00:50:09;;;;;;;7.63;6.78;;;6.60;70.90;6.90;99865.00;;;;345458;28;93354;-88
2021/03/10 00:50:20;;;;;;;8.55;6.93;;;6.60;71.10;6.90;99865.00;;;;344436;28;83874;-89
2021/03/10 00:50:31;;;;;;;7.75;6.10;;;6.60;71.00;6.90;99865.00;;;;344164;28;92124;-88
2021/03/10 00:50:43;;;;;;;7.63;6.07;;;6.60;71.00;6.90;99864.00;;;;344164;28;83944;-88
2021/03/10 00:50:54;;;;;;;7.20;6.15;;;6.60;71.00;6.90;99865.00;;;;344131;28;91039;-88
2021/03/10 00:51:06;;;;;;;7.85;6.22;;;6.60;71.00;6.90;99869.00;;;;344542;28;83942;-88
2021/03/10 00:51:18;;;;;;;8.35;5.90;;;6.60;71.10;6.90;99868.00;;;;345474;28;92053;-89
2021/03/10 00:51:29;;;;;;;9.30;5.93;;;6.60;71.10;6.90;99865.00;;;;344457;28;83550;-88
2021/03/10 00:51:40;;;;;;;9.07;5.95;;;6.60;71.10;7.00;99869.00;;;;347773;27;90826;-89
2021/03/10 00:51:52;;;;;;;7.82;6.00;;;6.60;71.10;7.00;99864.00;;;;345905;28;83436;-88
2021/03/10 00:52:04;;;;;;;7.93;6.38;;;6.60;71.00;7.00;99865.00;;;;344077;28;91514;-88
2021/03/10 00:52:15;;;;;;;8.70;6.78;;;6.60;71.00;6.90;99864.00;;;;344555;28;84842;-88
2021/03/10 00:52:26;;;;;;;8.65;6.78;;;6.60;71.10;6.90;99865.00;;;;345489;28;92117;-90
2021/03/10 00:52:38;;;;;;;9.40;6.50;;;6.60;71.00;7.00;99877.00;;;;344468;28;84711;-89
2021/03/10 00:52:50;;;;;;;9.57;6.25;;;6.60;71.00;6.90;99871.00;;;;345434;28;93192;-88
2021/03/10 00:53:01;;;;;;;9.68;6.93;;;6.60;71.10;6.90;99866.00;;;;347128;28;83779;-89
2021/03/10 00:53:13;;;;;;;9.55;7.28;;;6.60;71.00;6.90;99859.00;;;;345519;28;91740;-88
2021/03/10 00:53:24;;;;;;;9.63;7.53;;;6.60;71.00;6.90;99861.00;;;;345766;28;83832;-91
2021/03/10 00:53:36;;;;;;;9.20;6.82;;;6.60;71.00;6.90;99865.00;;;;346657;28;90872;-88
2021/03/10 00:53:47;;;;;;;8.15;6.38;;;6.60;71.00;6.90;99866.00;;;;344495;28;83487;-88
2021/03/10 00:53:59;;;;;;;7.95;6.65;;;6.60;71.10;6.90;99863.00;;;;345252;28;91940;-91
2021/03/10 00:54:10;;;;;;;7.57;6.63;;;6.60;71.10;6.80;99864.00;;;;345968;28;83724;-89
2021/03/10 00:54:22;;;;;;;7.88;6.84;;;6.60;71.10;6.80;99864.00;;;;345511;28;92393;-88